Time;durP1;ratioP1;P1;durP2;ratioP2;P2;SDS_P1;SDS_P2;PMS_P1;PMS_P2;Temp;Humidity;BMP_temperature;BMP_pressure;BME280_temperature;BME280_humidity;BME280_pressure;Samples;Min_cycle;Max_cycle;Signal;HPM_P1;HPM_P2
2024/01/20 00:01:47;;;;;;;;;;;;;;;-3.37;100.00;102068.94;4897593;29;19951;-74
2024/01/20 00:04:12;;;;;;;;;;;;;;;-3.39;100.00;102068.16;4896097;29;19924;-74
2024/01/20 00:06:37;;;;;;;;;;;;;;;-3.41;100.00;102072.66;4880231;29;20722;-74
2024/01/20 00:09:03;;;;;;;;;;;;;;;-3.42;100.00;102070.94;4896168;29;19942;-74
2024/01/20 00:11:28;;;;;;;;;;;;;;;-3.38;100.00;102067.22;4895916;29;19927;-74
2024/01/20 00:13:53;;;;;;;;;;;;;;;-3.38;100.00;102069.88;4896735;29;19935;-74
2024/01/20 00:16:19;;;;;;;;;;;;;;;-3.39;100.00;102078.69;4897429;29;19924;-74
2024/01/20 00:18:44;;;;;;;;;;;;;;;-3.43;100.00;102066.59;4896860;29;19930;-74
2024/01/20 00:21:09;;;;;;;;;;;;;;;-3.43;100.00;102066.59;4896362;29;19966;-73
2024/01/20 00:23:34;;;;;;;;;;;;;;;-3.44;100.00;102073.63;4897188;29;19959;-73
2024/01/20 00:25:59;;;;;;;;;;;;;;;-3.45;100.00;102073.72;4895744;29;19963;-73
2024/01/20 00:28:27;;;;;;;;;;;;;;;-3.51;100.00;102075.72;4896903;29;19974;-73
2024/01/20 00:30:53;;;;;;;;;;;;;;;-3.54;100.00;102078.53;4896111;29;19923;-74
2024/01/20 00:33:21;;;;;;;;;;;;;;;-3.52;100.00;102079.28;4896781;29;20614;-74
2024/01/20 00:35:47;;;;;;;;;;;;;;;-3.53;100.00;102077.56;4896643;29;19924;-73
2024/01/20 00:38:15;;;;;;;;;;;;;;;-3.53;100.00;102074.94;4895866;29;19971;-74
2024/01/20 00:40:40;;;;;;;;;;;;;;;-3.55;100.00;102071.53;4896568;29;19967;-73
2024/01/20 00:43:05;;;;;;;;;;;;;;;-3.56;100.00;102071.59;4893216;29;19966;-73
2024/01/20 00:45:30;;;;;;;;;;;;;;;-3.57;100.00;102076.03;4895124;29;19970;-73
2024/01/20 00:47:56;;;;;;;;;;;;;;;-3.59;100.00;102077.88;4896451;29;19923;-73
2024/01/20 00:50:24;;;;;;;;;;;;;;;-3.64;100.00;102077.25;4895435;29;19924;-73
2024/01/20 00:52:49;;;;;;;;;;;;;;;-3.61;100.00;102078.84;4895794;29;19951;-73
2024/01/20 00:55:14;;;;;;;;;;;;;;;-3.61;100.00;102078.84;4895616;29;19923;-72
2024/01/20 00:57:42;;;;;;;;;;;;;;;-3.63;100.00;102088.63;4896204;29;19970;-74
2024/01/20 01:00:11;;;;;;;;;;;;;;;-3.62;100.00;102083.28;4895207;29;20388;-73
2024/01/20 01:02:36;;;;;;;;;;;;;;;-3.62;100.00;102091.19;4896097;29;20022;-73
2024/01/20 01:05:02;;;;;;;;;;;;;;;-3.57;100.00;102080.44;4894168;29;20014;-74
2024/01/20 01:07:27;;;;;;;;;;;;;;;-3.56;100.00;102077.72;4895650;29;20234;-74
2024/01/20 01:09:52;;;;;;;;;;;;;;;-3.55;100.00;102091.75;4895352;29;19930;-74
2024/01/20 01:12:17;;;;;;;;;;;;;;;-3.58;100.00;102089.25;4895258;29;20014;-74
2024/01/20 01:14:42;;;;;;;;;;;;;;;-3.54;100.00;102086.41;4896503;29;19974;-73
2024/01/20 01:17:08;;;;;;;;;;;;;;;-3.58;100.00;102079.59;4896403;29;19934;-73
2024/01/20 01:19:33;;;;;;;;;;;;;;;-3.61;100.00;102085.00;4894174;29;20339;-73
2024/01/20 01:21:58;;;;;;;;;;;;;;;-3.64;100.00;102087.75;4895778;29;20005;-74
2024/01/20 01:24:24;;;;;;;;;;;;;;;-3.52;100.00;102092.44;4896238;29;20345;-73
2024/01/20 01:26:49;;;;;;;;;;;;;;;-3.55;100.00;102089.09;4893921;29;19928;-73
2024/01/20 01:29:14;;;;;;;;;;;;;;;-3.50;100.00;102080.06;4896044;29;19931;-73
2024/01/20 01:31:39;;;;;;;;;;;;;;;-3.46;100.00;102098.34;4895880;29;19938;-73
2024/01/20 01:34:05;;;;;;;;;;;;;;;-3.37;100.00;102097.91;4894283;29;19978;-73
2024/01/20 01:36:30;;;;;;;;;;;;;;;-3.35;100.00;102096.03;4896116;29;20030;-73
2024/01/20 01:38:55;;;;;;;;;;;;;;;-3.33;100.00;102095.97;4895099;29;19931;-73
2024/01/20 01:41:20;;;;;;;;;;;;;;;-3.39;100.00;102108.50;4894552;29;19961;-73
2024/01/20 01:43:45;;;;;;;;;;;;;;;-3.29;100.00;102094.88;4880673;29;19928;-73
2024/01/20 01:46:11;;;;;;;;;;;;;;;-3.27;100.00;102104.41;4877542;29;19924;-72
2024/01/20 01:48:36;;;;;;;;;;;;;;;-3.27;100.00;102104.41;4858540;29;20015;-73
2024/01/20 01:51:02;;;;;;;;;;;;;;;-3.26;100.00;102108.75;4858804;29;20018;-72
2024/01/20 01:53:27;;;;;;;;;;;;;;;-3.30;100.00;102109.81;4877191;29;19924;-73
2024/01/20 01:55:55;;;;;;;;;;;;;;;-3.23;100.00;102121.78;4875305;29;19983;-73
2024/01/20 01:58:21;;;;;;;;;;;;;;;-3.25;100.00;102120.13;4875818;29;19924;-73
2024/01/20 02:00:46;;;;;;;;;;;;;;;-3.33;100.00;102131.03;4876755;29;19923;-73
2024/01/20 02:03:11;;;;;;;;;;;;;;;-3.24;100.00;102127.97;4858866;29;19963;-73
2024/01/20 02:05:36;;;;;;;;;;;;;;;-3.23;100.00;102127.03;4876223;29;19967;-74
2024/01/20 02:08:02;;;;;;;;;;;;;;;-3.24;100.00;102133.22;4876794;29;19939;-74
2024/01/20 02:10:27;;;;;;;;;;;;;;;-3.18;100.00;102123.34;4873927;29;19930;-74
2024/01/20 02:12:52;;;;;;;;;;;;;;;-3.25;100.00;102125.38;4876516;29;20532;-74
2024/01/20 02:15:18;;;;;;;;;;;;;;;-3.15;100.00;102120.53;4876225;29;20301;-74
2024/01/20 02:17:52;;;;;;;;;;;;;;;-3.19;100.00;102125.09;4875419;29;19950;-74
2024/01/20 02:20:17;;;;;;;;;;;;;;;-3.24;100.00;102122.69;4875263;29;19942;-73
2024/01/20 02:22:43;;;;;;;;;;;;;;;-3.23;100.00;102134.06;4875906;29;19931;-73
2024/01/20 02:25:08;;;;;;;;;;;;;;;-3.20;100.00;102136.56;4874652;29;19942;-73
2024/01/20 02:27:33;;;;;;;;;;;;;;;-3.20;100.00;102141.81;4875551;29;19955;-73
2024/01/20 02:29:58;;;;;;;;;;;;;;;-3.32;100.00;102143.28;4874421;29;19924;-74
2024/01/20 02:32:24;;;;;;;;;;;;;;;-3.24;100.00;102149.03;4875609;29;20019;-75
2024/01/20 02:34:49;;;;;;;;;;;;;;;-3.14;100.00;102140.66;4875508;29;19924;-74
2024/01/20 02:37:14;;;;;;;;;;;;;;;-3.08;100.00;102150.91;4875185;29;19930;-73
2024/01/20 02:39:39;;;;;;;;;;;;;;;-3.10;100.00;102152.75;4875027;29;19924;-73
2024/01/20 02:42:08;;;;;;;;;;;;;;;-3.16;100.00;102148.66;4876918;29;19948;-74
2024/01/20 02:44:33;;;;;;;;;;;;;;;-3.06;100.00;102146.44;4894135;29;19923;-73
2024/01/20 02:47:02;;;;;;;;;;;;;;;-2.98;100.00;102152.16;4894271;29;20014;-73
2024/01/20 02:49:27;;;;;;;;;;;;;;;-2.91;100.00;102147.44;4876414;29;19987;-73
2024/01/20 02:51:52;;;;;;;;;;;;;;;-2.96;100.00;102145.03;4893590;29;19935;-73
2024/01/20 02:54:18;;;;;;;;;;;;;;;-2.95;100.00;102148.53;4893837;29;20258;-74
2024/01/20 02:56:43;;;;;;;;;;;;;;;-3.02;100.00;102155.03;4893606;29;20282;-73
2024/01/20 02:59:08;;;;;;;;;;;;;;;-3.03;100.00;102151.53;4893449;29;19994;-73
2024/01/20 03:01:33;;;;;;;;;;;;;;;-3.00;100.00;102143.47;4893764;29;19924;-73
2024/01/20 03:03:59;;;;;;;;;;;;;;;-2.97;100.00;102140.69;4893576;29;19923;-74
2024/01/20 03:06:24;;;;;;;;;;;;;;;-2.97;100.00;102143.31;4892360;29;19963;-73
2024/01/20 03:08:49;;;;;;;;;;;;;;;-3.05;100.00;102140.22;4893751;29;19934;-74
2024/01/20 03:11:14;;;;;;;;;;;;;;;-3.10;100.00;102144.88;4893464;29;19933;-73
2024/01/20 03:13:40;;;;;;;;;;;;;;;-3.08;100.00;102150.91;4893304;29;20010;-73
2024/01/20 03:16:05;;;;;;;;;;;;;;;-3.00;100.00;102147.91;4893690;29;20003;-73
2024/01/20 03:18:30;;;;;;;;;;;;;;;-3.01;100.00;102138.28;4876144;29;19923;-74
2024/01/20 03:20:55;;;;;;;;;;;;;;;-3.02;100.00;102145.34;4893077;29;19967;-74
2024/01/20 03:23:20;;;;;;;;;;;;;;;-3.05;100.00;102146.34;4894307;29;20015;-74
2024/01/20 03:25:46;;;;;;;;;;;;;;;-3.09;100.00;102139.50;4892915;29;20125;-74
2024/01/20 03:28:11;;;;;;;;;;;;;;;-3.21;100.00;102141.00;4891526;29;19973;-74
2024/01/20 03:30:36;;;;;;;;;;;;;;;-3.19;100.00;102138.28;4894290;29;19924;-74
2024/01/20 03:33:01;;;;;;;;;;;;;;;-3.24;100.00;102151.66;4891256;29;19991;-74
2024/01/20 03:35:27;;;;;;;;;;;;;;;-3.28;100.00;102146.63;4893750;29;19980;-74
2024/01/20 03:37:52;;;;;;;;;;;;;;;-3.33;100.00;102143.34;4893650;29;20391;-74
2024/01/20 03:40:17;;;;;;;;;;;;;;;-3.28;100.00;102155.38;4892138;29;19923;-74
2024/01/20 03:42:42;;;;;;;;;;;;;;;-3.39;100.00;102157.69;4892820;29;19923;-74
2024/01/20 03:45:08;;;;;;;;;;;;;;;-3.35;100.00;102156.56;4894468;29;20365;-74
2024/01/20 03:47:33;;;;;;;;;;;;;;;-3.39;100.00;102157.69;4892612;29;19951;-74
2024/01/20 03:49:58;;;;;;;;;;;;;;;-3.40;100.00;102151.53;4891556;29;19927;-74
2024/01/20 03:52:23;;;;;;;;;;;;;;;-3.38;100.00;102160.22;4894016;29;19935;-74
2024/01/20 03:54:48;;;;;;;;;;;;;;;-3.42;100.00;102168.34;4891660;29;19987;-74
2024/01/20 03:57:14;;;;;;;;;;;;;;;-3.43;100.00;102164.00;4892901;29;19938;-73
2024/01/20 03:59:39;;;;;;;;;;;;;;;-3.41;100.00;102159.53;4894367;29;20010;-73
2024/01/20 04:02:04;;;;;;;;;;;;;;;-3.42;100.00;102169.19;4892149;29;20392;-73
2024/01/20 04:04:29;;;;;;;;;;;;;;;-3.37;100.00;102171.63;4892428;29;20538;-73
2024/01/20 04:06:56;;;;;;;;;;;;;;;-3.38;100.00;102169.91;4893531;29;20007;-73
2024/01/20 04:09:21;;;;;;;;;;;;;;;-3.40;100.00;102180.50;4891418;29;19928;-73
2024/01/20 04:11:47;;;;;;;;;;;;;;;-3.42;100.00;102178.88;4892442;29;19986;-74
2024/01/20 04:14:12;;;;;;;;;;;;;;;-3.44;100.00;102180.72;4893489;29;19967;-74
2024/01/20 04:16:37;;;;;;;;;;;;;;;-3.46;100.00;102182.56;4892545;29;19946;-74
2024/01/20 04:19:02;;;;;;;;;;;;;;;-3.43;100.00;102177.16;4892654;29;19931;-74
2024/01/20 04:21:28;;;;;;;;;;;;;;;-3.42;100.00;102165.72;4893500;29;19934;-73
2024/01/20 04:23:53;;;;;;;;;;;;;;;-3.48;100.00;102182.66;4891654;29;19920;-73
2024/01/20 04:26:18;;;;;;;;;;;;;;;-3.54;100.00;102181.19;4892713;29;19929;-73
2024/01/20 04:28:43;;;;;;;;;;;;;;;-3.48;100.00;102189.69;4891786;29;20018;-73
2024/01/20 04:31:08;;;;;;;;;;;;;;;-3.46;100.00;102182.56;4892214;29;19927;-73
2024/01/20 04:33:36;;;;;;;;;;;;;;;-3.51;100.00;102195.97;4893370;29;20010;-73
2024/01/20 04:36:01;;;;;;;;;;;;;;;-3.46;100.00;102183.44;4892497;29;20296;-75
2024/01/20 04:38:27;;;;;;;;;;;;;;;-3.51;100.00;102180.16;4892997;29;19930;-74
2024/01/20 04:40:53;;;;;;;;;;;;;;;-3.53;100.00;102184.66;4895727;29;19935;-74
2024/01/20 04:43:20;;;;;;;;;;;;;;;-3.50;100.00;102185.34;4885422;29;20337;-74
2024/01/20 04:45:45;;;;;;;;;;;;;;;-3.50;100.00;102187.97;4877858;29;19960;-74
2024/01/20 04:48:10;;;;;;;;;;;;;;;-3.52;100.00;102187.19;4876963;29;19931;-74
2024/01/20 04:50:36;;;;;;;;;;;;;;;-3.52;100.00;102189.84;4876511;29;19952;-74
2024/01/20 04:53:01;;;;;;;;;;;;;;;-3.53;100.00;102182.03;4877245;29;19924;-74
2024/01/20 04:55:26;;;;;;;;;;;;;;;-3.53;100.00;102189.91;4876736;29;20019;-74
2024/01/20 04:57:54;;;;;;;;;;;;;;;-3.55;100.00;102202.28;4876805;29;19924;-75
2024/01/20 05:00:19;;;;;;;;;;;;;;;-3.57;100.00;102197.13;4878267;29;19947;-74
2024/01/20 05:02:44;;;;;;;;;;;;;;;-3.54;100.00;102196.97;4878919;29;20400;-73
2024/01/20 05:05:10;;;;;;;;;;;;;;;-3.60;100.00;102202.50;4878965;29;19958;-73
2024/01/20 05:07:35;;;;;;;;;;;;;;;-3.56;100.00;102209.34;4878824;29;20015;-73
2024/01/20 05:10:00;;;;;;;;;;;;;;;-3.52;100.00;102210.88;4877481;29;20241;-73
2024/01/20 05:12:25;;;;;;;;;;;;;;;-3.52;100.00;102205.63;4876269;29;19958;-73
2024/01/20 05:14:51;;;;;;;;;;;;;;;-3.54;100.00;102207.50;4879569;29;20041;-73
2024/01/20 05:17:17;;;;;;;;;;;;;;;-3.47;100.00;102215.09;4882415;29;19928;-73
2024/01/20 05:19:43;;;;;;;;;;;;;;;-3.44;100.00;102214.97;4883741;29;19923;-73
2024/01/20 05:22:11;;;;;;;;;;;;;;;-3.39;100.00;102220.88;4878499;29;19936;-73
2024/01/20 05:24:37;;;;;;;;;;;;;;;-3.46;100.00;102229.97;4877588;29;19995;-74
2024/01/20 05:27:02;;;;;;;;;;;;;;;-3.45;100.00;102231.69;4877113;29;19927;-73
2024/01/20 05:29:27;;;;;;;;;;;;;;;-3.37;100.00;102232.19;4878601;29;19951;-73
2024/01/20 05:31:52;;;;;;;;;;;;;;;-3.38;100.00;102238.38;4877703;29;20389;-73
2024/01/20 05:36:43;;;;;;;;;;;;;;;-3.30;100.00;102248.56;4946794;23;19959;-74
2024/01/20 05:39:08;;;;;;;;;;;;;;;-3.35;100.00;102243.47;4895421;29;20415;-74
2024/01/20 05:41:33;;;;;;;;;;;;;;;-3.31;100.00;102252.94;4893712;29;20106;-74
2024/01/20 05:43:59;;;;;;;;;;;;;;;-3.25;100.00;102257.94;4895936;29;19931;-73
2024/01/20 05:46:24;;;;;;;;;;;;;;;-3.21;100.00;102251.59;4887592;29;19924;-73
2024/01/20 05:48:49;;;;;;;;;;;;;;;-3.27;100.00;102262.41;4894413;29;19946;-74
2024/01/20 05:51:14;;;;;;;;;;;;;;;-3.18;100.00;102260.28;4894727;29;19958;-73
2024/01/20 05:53:40;;;;;;;;;;;;;;;-3.16;100.00;102261.06;4894871;29;20080;-74
2024/01/20 05:56:05;;;;;;;;;;;;;;;-3.10;100.00;102266.91;4893578;29;19967;-73
2024/01/20 05:58:30;;;;;;;;;;;;;;;-3.07;100.00;102258.00;4895498;29;20022;-73
2024/01/20 06:00:55;;;;;;;;;;;;;;;-3.06;100.00;102251.81;4894199;29;19959;-73
2024/01/20 06:03:21;;;;;;;;;;;;;;;-3.15;100.00;102268.03;4894983;29;19991;-74
2024/01/20 06:05:46;;;;;;;;;;;;;;;-3.11;100.00;102259.94;4894638;29;20388;-72
2024/01/20 06:08:11;;;;;;;;;;;;;;;-3.03;100.00;102259.56;4894982;29;19963;-73
2024/01/20 06:10:36;;;;;;;;;;;;;;;-2.98;100.00;102261.97;4893980;29;20260;-75
2024/01/20 06:13:02;;;;;;;;;;;;;;;-2.98;100.00;102268.09;4895047;29;19946;-73
2024/01/20 06:15:27;;;;;;;;;;;;;;;-2.97;100.00;102247.88;4893395;29;19924;-74
2024/01/20 06:17:53;;;;;;;;;;;;;;;-2.96;100.00;102246.94;4894567;29;19930;-74
2024/01/20 06:20:18;;;;;;;;;;;;;;;-2.99;100.00;102245.28;4893722;29;19927;-74
2024/01/20 06:22:44;;;;;;;;;;;;;;;-3.03;100.00;102243.75;4893755;29;19976;-74
2024/01/20 06:25:10;;;;;;;;;;;;;;;-3.04;100.00;102247.31;4908511;23;19932;-74
2024/01/20 06:27:35;;;;;;;;;;;;;;;-3.05;100.00;102250.88;4886692;29;20024;-74
2024/01/20 06:30:01;;;;;;;;;;;;;;;-3.05;100.00;102245.59;4888931;29;19935;-74
2024/01/20 06:32:26;;;;;;;;;;;;;;;-3.02;100.00;102253.38;4893758;29;19930;-74
2024/01/20 06:34:51;;;;;;;;;;;;;;;-2.99;100.00;102266.38;4894140;29;20014;-74
2024/01/20 06:37:16;;;;;;;;;;;;;;;-2.97;100.00;102258.41;4894380;29;19981;-74
2024/01/20 06:39:42;;;;;;;;;;;;;;;-2.95;100.00;102254.75;4898640;29;19974;-74
2024/01/20 06:42:07;;;;;;;;;;;;;;;-2.95;100.00;102252.13;4894310;29;19991;-74
2024/01/20 06:44:33;;;;;;;;;;;;;;;-2.91;100.00;102253.69;4894130;29;20023;-74
2024/01/20 06:46:58;;;;;;;;;;;;;;;-2.90;100.00;102259.81;4893270;29;19923;-74
2024/01/20 06:49:23;;;;;;;;;;;;;;;-2.90;100.00;102255.41;4893863;29;19935;-75
2024/01/20 06:51:48;;;;;;;;;;;;;;;-2.87;100.00;102264.09;4893337;29;19970;-74
2024/01/20 06:54:14;;;;;;;;;;;;;;;-2.86;100.00;102260.53;4894101;29;19963;-74
2024/01/20 06:56:39;;;;;;;;;;;;;;;-2.87;100.00;102269.38;4893665;29;20277;-74
2024/01/20 06:59:04;;;;;;;;;;;;;;;-2.84;100.00;102263.94;4891859;29;19927;-74
2024/01/20 07:01:29;;;;;;;;;;;;;;;-2.84;100.00;102264.78;4893666;29;19983;-74
2024/01/20 07:03:54;;;;;;;;;;;;;;;-2.85;100.00;102267.50;4893248;29;19932;-75
2024/01/20 07:06:24;;;;;;;;;;;;;;;-2.80;100.00;102268.13;4894667;29;19943;-73
2024/01/20 07:08:49;;;;;;;;;;;;;;;-2.78;100.00;102263.63;4893465;29;20323;-72
2024/01/20 07:11:14;;;;;;;;;;;;;;;-2.88;100.00;102257.97;4892034;29;20451;-73
2024/01/20 07:13:39;;;;;;;;;;;;;;;-2.83;100.00;102273.56;4894624;29;20164;-75
2024/01/20 07:16:11;;;;;;;;;;;;;;;-2.85;100.00;102268.34;4892566;29;20281;-72
2024/01/20 07:18:36;;;;;;;;;;;;;;;-2.81;100.00;102266.41;4891937;29;20459;-74
2024/01/20 07:21:02;;;;;;;;;;;;;;;-2.93;100.00;102275.78;4894357;29;19924;-75
2024/01/20 07:23:27;;;;;;;;;;;;;;;-2.82;100.00;102272.59;4889886;29;20397;-75
2024/01/20 07:25:52;;;;;;;;;;;;;;;-2.81;100.00;102274.31;4874750;29;20374;-74
2024/01/20 07:28:18;;;;;;;;;;;;;;;-2.84;100.00;102277.97;4894544;29;19923;-73
2024/01/20 07:30:43;;;;;;;;;;;;;;;-2.79;100.00;102275.09;4892498;29;19972;-73
2024/01/20 07:33:08;;;;;;;;;;;;;;;-2.79;100.00;102273.34;4891166;29;19935;-73
2024/01/20 07:35:33;;;;;;;;;;;;;;;-2.85;100.00;102278.06;4894275;29;19963;-73
2024/01/20 07:37:59;;;;;;;;;;;;;;;-2.80;100.00;102286.56;4893128;29;19935;-73
2024/01/20 07:40:24;;;;;;;;;;;;;;;-2.74;100.00;102292.41;4889510;29;19931;-73
2024/01/20 07:42:49;;;;;;;;;;;;;;;-2.81;100.00;102303.31;4893997;29;20419;-73
2024/01/20 07:45:15;;;;;;;;;;;;;;;-2.71;100.00;102307.22;4893591;29;19923;-74
2024/01/20 07:47:43;;;;;;;;;;;;;;;-2.72;100.00;102305.53;4892786;29;19934;-76
2024/01/20 07:50:08;;;;;;;;;;;;;;;-2.74;100.00;102313.47;4893795;29;20420;-75
2024/01/20 07:52:37;;;;;;;;;;;;;;;-2.68;100.00;102319.41;4892548;29;20403;-74
2024/01/20 07:55:02;;;;;;;;;;;;;;;-2.65;100.00;102314.84;4891523;29;19962;-74
2024/01/20 07:57:28;;;;;;;;;;;;;;;-2.65;100.00;102324.53;4892527;29;20460;-75
2024/01/20 07:59:53;;;;;;;;;;;;;;;-2.71;100.00;102315.13;4893691;29;20340;-75
2024/01/20 08:02:18;;;;;;;;;;;;;;;-2.71;100.00;102316.91;4892600;29;20388;-74
2024/01/20 08:04:43;;;;;;;;;;;;;;;-2.67;100.00;102329.00;4891815;29;19923;-74
2024/01/20 08:07:09;;;;;;;;;;;;;;;-2.60;100.00;102330.44;4893299;29;19930;-74
2024/01/20 08:09:34;;;;;;;;;;;;;;;-2.63;100.00;102320.03;4892324;29;19935;-74
2024/01/20 08:11:59;;;;;;;;;;;;;;;-2.57;100.00;102313.59;4893453;29;19981;-74
2024/01/20 08:14:24;;;;;;;;;;;;;;;-2.62;100.00;102308.56;4894811;29;19935;-73
2024/01/20 08:16:49;;;;;;;;;;;;;;;-2.62;100.00;102327.84;4896576;29;19931;-73
2024/01/20 08:19:15;;;;;;;;;;;;;;;-2.56;100.00;102326.75;4896854;29;19979;-74
2024/01/20 08:21:40;;;;;;;;;;;;;;;-2.63;100.00;102320.88;4895809;29;19931;-73
2024/01/20 08:24:05;;;;;;;;;;;;;;;-2.63;100.00;102327.94;4895715;29;19923;-73
2024/01/20 08:26:32;;;;;;;;;;;;;;;-2.61;100.00;102336.63;4895516;29;19927;-74
2024/01/20 08:28:59;;;;;;;;;;;;;;;-2.62;100.00;102340.19;4894338;29;19941;-74
2024/01/20 08:31:25;;;;;;;;;;;;;;;-2.49;100.00;102332.56;4896105;29;19927;-74
2024/01/20 08:33:53;;;;;;;;;;;;;;;-2.46;100.00;102338.53;4896113;29;19938;-73
2024/01/20 08:36:18;;;;;;;;;;;;;;;-2.46;100.00;102337.66;4896712;29;20062;-74
2024/01/20 08:38:43;;;;;;;;;;;;;;;-2.42;100.00;102356.84;4896697;29;20010;-72
2024/01/20 08:41:09;;;;;;;;;;;;;;;-2.32;100.00;102353.69;4894742;29;19931;-73
2024/01/20 08:43:35;;;;;;;;;;;;;;;-2.24;100.00;102347.16;4896439;29;19923;-73
2024/01/20 08:46:00;;;;;;;;;;;;;;;-2.23;100.00;102338.31;4896308;29;20431;-74
2024/01/20 08:48:28;;;;;;;;;;;;;;;-2.19;100.00;102345.16;4896475;29;19928;-73
2024/01/20 08:50:56;;;;;;;;;;;;;;;-2.18;100.00;102345.06;4896054;29;19931;-73
2024/01/20 08:53:21;;;;;;;;;;;;;;;-2.25;100.00;102346.31;4895680;29;20425;-74
2024/01/20 08:55:46;;;;;;;;;;;;;;;-2.22;100.00;102347.94;4895594;29;20092;-74
2024/01/20 08:58:12;;;;;;;;;;;;;;;-2.22;100.00;102353.22;4896489;29;19928;-75
2024/01/20 09:00:37;;;;;;;;;;;;;;;-2.24;100.00;102347.16;4896070;29;20326;-74
2024/01/20 09:03:02;;;;;;;;;;;;;;;-2.19;100.00;102339.88;4895806;29;19927;-74
2024/01/20 09:05:27;;;;;;;;;;;;;;;-2.25;100.00;102341.03;4895755;29;19950;-74
2024/01/20 09:07:52;;;;;;;;;;;;;;;-2.21;100.00;102341.75;4896119;29;20371;-75
2024/01/20 09:10:18;;;;;;;;;;;;;;;-2.15;100.00;102352.00;4895220;29;20016;-74
2024/01/20 09:12:43;;;;;;;;;;;;;;;-2.11;100.00;102336.84;4896165;29;20014;-75
2024/01/20 09:15:09;;;;;;;;;;;;;;;-2.08;100.00;102358.66;4894842;29;19929;-74
2024/01/20 09:17:35;;;;;;;;;;;;;;;-2.00;100.00;102353.00;4894671;29;19928;-75
2024/01/20 09:20:00;;;;;;;;;;;;;;;-2.03;100.00;102356.66;4896737;29;20010;-75
2024/01/20 09:22:25;;;;;;;;;;;;;;;-1.93;100.00;102364.97;4894397;29;20023;-74
2024/01/20 09:24:54;;;;;;;;;;;;;;;-1.93;100.00;102377.28;4891116;29;19931;-75
2024/01/20 09:27:19;;;;;;;;;;;;;;;-2.10;100.00;102376.34;4877513;29;20019;-74
2024/01/20 09:29:45;;;;;;;;;;;;;;;-2.19;100.00;102379.44;4876956;29;20129;-72
2024/01/20 09:32:10;;;;;;;;;;;;;;;-2.13;100.00;102381.78;4876531;29;20039;-73
2024/01/20 09:34:35;;;;;;;;;;;;;;;-2.04;100.00;102394.53;4877693;29;19967;-74
2024/01/20 09:37:00;;;;;;;;;;;;;;;-2.04;100.00;102386.59;4876761;29;19963;-73
2024/01/20 09:39:26;;;;;;;;;;;;;;;-1.93;100.00;102394.00;4875794;29;19967;-73
2024/01/20 09:41:51;;;;;;;;;;;;;;;-1.89;100.00;102402.59;4878058;29;19924;-74
2024/01/20 09:44:20;;;;;;;;;;;;;;;-1.85;100.00;102385.69;4877551;29;20369;-74
2024/01/20 09:46:45;;;;;;;;;;;;;;;-1.94;100.00;102404.63;4875768;29;19928;-74
2024/01/20 09:49:10;;;;;;;;;;;;;;;-2.01;100.00;102404.94;4860601;29;19958;-74
2024/01/20 09:51:37;;;;;;;;;;;;;;;-1.96;100.00;102401.22;4877132;29;19928;-74
2024/01/20 09:54:02;;;;;;;;;;;;;;;-1.93;100.00;102393.13;4859110;29;20292;-74
2024/01/20 09:56:27;;;;;;;;;;;;;;;-1.96;100.00;102385.38;4876378;29;20007;-74
2024/01/20 09:59:02;;;;;;;;;;;;;;;-2.01;100.00;102394.38;4876585;29;20416;-74
2024/01/20 10:01:27;;;;;;;;;;;;;;;-2.12;100.00;102407.25;4859368;29;19975;-74
2024/01/20 10:03:53;;;;;;;;;;;;;;;-1.93;100.00;102403.69;4860384;29;19924;-74
2024/01/20 10:06:18;;;;;;;;;;;;;;;-1.92;100.00;102406.25;4876904;29;19980;-75
2024/01/20 10:08:44;;;;;;;;;;;;;;;-1.92;100.00;102405.38;4875176;29;19931;-75
2024/01/20 10:11:09;;;;;;;;;;;;;;;-1.86;100.00;102413.00;4876019;29;20015;-74
2024/01/20 10:13:34;;;;;;;;;;;;;;;-1.87;100.00;102398.09;4877742;29;20321;-75
2024/01/20 10:15:59;;;;;;;;;;;;;;;-1.86;100.00;102405.09;4875818;29;19928;-75
2024/01/20 10:18:24;;;;;;;;;;;;;;;-1.97;100.00;102405.63;4876650;29;19962;-75
2024/01/20 10:20:59;;;;;;;;;;;;;;;-2.03;100.00;102393.59;4875531;29;19935;-75
2024/01/20 10:23:24;;;;;;;;;;;;;;;-2.07;100.00;102410.50;4875482;29;19936;-75
2024/01/20 10:25:58;;;;;;;;;;;;;;;-2.01;100.00;102417.25;4885768;29;19928;-75
2024/01/20 10:28:23;;;;;;;;;;;;;;;-2.08;100.00;102406.16;4895018;29;19930;-76
2024/01/20 10:30:48;;;;;;;;;;;;;;;-2.18;100.00;102426.00;4894490;29;19923;-75
2024/01/20 10:33:14;;;;;;;;;;;;;;;-1.96;100.00;102427.59;4877807;29;19935;-75
2024/01/20 10:35:39;;;;;;;;;;;;;;;-2.05;100.00;102421.00;4894292;29;19923;-75
2024/01/20 10:38:06;;;;;;;;;;;;;;;-1.94;100.00;102410.75;4894176;29;20423;-75
2024/01/20 10:40:31;;;;;;;;;;;;;;;-1.80;100.00;102422.41;4877291;29;20372;-75
2024/01/20 10:43:00;;;;;;;;;;;;;;;-1.77;100.00;102416.97;4876977;29;19930;-75
2024/01/20 10:45:25;;;;;;;;;;;;;;;-1.75;100.00;102430.94;4893952;29;19928;-75
2024/01/20 10:48:02;;;;;;;;;;;;;;;-1.64;100.00;102430.41;4877724;29;20372;-75
2024/01/20 10:50:28;;;;;;;;;;;;;;;-1.55;100.00;102432.56;4893662;29;19979;-75
2024/01/20 10:52:53;;;;;;;;;;;;;;;-1.71;100.00;102433.34;4893174;29;19931;-75
2024/01/20 10:55:18;;;;;;;;;;;;;;;-1.45;100.00;102431.19;4893499;29;19931;-75
2024/01/20 10:57:46;;;;;;;;;;;;;;;-1.36;100.00;102432.50;4893822;29;20444;-76
2024/01/20 11:00:12;;;;;;;;;;;;;;;-1.19;100.00;102430.75;4894147;29;20315;-77
2024/01/20 11:02:37;;;;;;;;;;;;;;;-1.22;100.00;102424.69;4877216;29;19924;-76
2024/01/20 11:05:03;;;;;;;;;;;;;;;-1.46;100.00;102425.97;4893613;29;19987;-76
2024/01/20 11:07:31;;;;;;;;;;;;;;;-1.41;100.00;102431.88;4894794;29;19927;-76
2024/01/20 11:09:57;;;;;;;;;;;;;;;-1.48;100.00;102430.47;4893224;29;20391;-76
2024/01/20 11:12:22;;;;;;;;;;;;;;;-1.68;100.00;102430.56;4893725;29;19924;-76
2024/01/20 11:14:55;;;;;;;;;;;;;;;-1.59;100.00;102423.97;4900967;23;20001;-76
2024/01/20 11:17:20;;;;;;;;;;;;;;;-1.60;100.00;102438.09;4872181;29;20449;-75
2024/01/20 11:19:45;;;;;;;;;;;;;;;-1.65;100.00;102436.63;4875867;29;19964;-75
2024/01/20 11:22:29;;;;;;;;;;;;;;;-1.62;100.00;102425.91;4858280;29;20243;-75
2024/01/20 11:24:55;;;;;;;;;;;;;;;-1.61;100.00;102424.97;4877564;29;19932;-75
2024/01/20 11:27:20;;;;;;;;;;;;;;;-1.69;100.00;102431.50;4875167;29;19931;-76
2024/01/20 11:29:45;;;;;;;;;;;;;;;-1.73;100.00;102422.00;4857687;29;19924;-76
2024/01/20 11:32:10;;;;;;;;;;;;;;;-1.79;100.00;102421.47;4874558;29;19930;-76
2024/01/20 11:34:36;;;;;;;;;;;;;;;-1.78;100.00;102415.25;4876056;29;19970;-75
2024/01/20 11:37:01;;;;;;;;;;;;;;;-1.74;100.00;102415.03;4874669;29;19924;-75
2024/01/20 11:39:27;;;;;;;;;;;;;;;-1.74;100.00;102419.47;4858498;29;20201;-75
2024/01/20 11:42:02;;;;;;;;;;;;;;;-1.95;100.00;102422.25;4877548;29;19967;-75
2024/01/20 11:44:27;;;;;;;;;;;;;;;-1.64;100.00;102419.84;4875086;29;20114;-75
2024/01/20 11:46:53;;;;;;;;;;;;;;;-1.54;100.00;102415.78;4874311;29;20436;-75
2024/01/20 11:49:18;;;;;;;;;;;;;;;-1.56;100.00;102413.25;4874773;29;20365;-75
2024/01/20 11:51:43;;;;;;;;;;;;;;;-1.41;100.00;102413.38;4874276;29;19923;-75
2024/01/20 11:54:09;;;;;;;;;;;;;;;-1.38;100.00;102408.78;4872330;29;20391;-75
2024/01/20 11:56:34;;;;;;;;;;;;;;;-1.73;100.00;102406.16;4886509;23;19931;-75
2024/01/20 11:58:59;;;;;;;;;;;;;;;-1.70;100.00;102415.75;4892961;29;19994;-75
2024/01/20 12:01:24;;;;;;;;;;;;;;;-1.54;100.00;102406.09;4892344;29;19931;-77
2024/01/20 12:03:50;;;;;;;;;;;;;;;-1.50;100.00;102401.50;4894271;29;20010;-77
2024/01/20 12:06:15;;;;;;;;;;;;;;;-1.46;100.00;102403.06;4893077;29;20015;-77
2024/01/20 12:08:42;;;;;;;;;;;;;;;-1.46;100.00;102400.41;4876117;29;19969;-76
2024/01/20 12:11:07;;;;;;;;;;;;;;;-1.48;100.00;102401.41;4893678;29;19963;-77
2024/01/20 12:13:34;;;;;;;;;;;;;;;-1.49;100.00;102403.22;4893511;29;19969;-76
2024/01/20 12:15:59;;;;;;;;;;;;;;;-1.47;100.00;102385.50;4893525;29;19927;-77
2024/01/20 12:18:25;;;;;;;;;;;;;;;-1.56;100.00;102391.25;4894520;29;20038;-77
2024/01/20 12:20:50;;;;;;;;;;;;;;;-1.41;100.00;102389.59;4899264;23;19927;-75
2024/01/20 12:23:27;;;;;;;;;;;;;;;-1.42;100.00;102386.13;4896388;29;19927;-76